createdAt,value
2019-03-31T00:01:08.061Z,43.17
2019-03-31T00:02:13.551Z,42.92
2019-03-31T00:03:21.696Z,42.80
2019-03-31T00:04:31.230Z,42.42
2019-03-31T00:05:39.243Z,42.75
2019-03-31T00:06:47.555Z,42.82
2019-03-31T00:07:55.741Z,42.95
2019-03-31T00:09:05.877Z,42.91
2019-03-31T00:10:14.275Z,42.85
2019-03-31T00:11:22.904Z,42.82
2019-03-31T00:12:31.083Z,43.26
2019-03-31T00:13:39.588Z,42.89
2019-03-31T00:14:47.703Z,42.96
2019-03-31T00:15:55.871Z,42.98
2019-03-31T00:17:04.140Z,43.04
2019-03-31T00:18:12.365Z,42.78
2019-03-31T00:19:20.651Z,43.13
2019-03-31T00:20:28.921Z,42.98
2019-03-31T00:21:37.338Z,42.79
2019-03-31T00:22:46.008Z,43.14
2019-03-31T00:23:54.232Z,42.99
2019-03-31T00:25:02.178Z,43.01
2019-03-31T00:26:10.395Z,43.10
2019-03-31T00:27:19.117Z,43.15
2019-03-31T00:28:27.505Z,43.31
2019-03-31T00:29:35.879Z,43.33
2019-03-31T00:30:44.492Z,43.51
2019-03-31T00:31:52.990Z,43.69
2019-03-31T00:33:01.354Z,43.87
2019-03-31T00:34:09.376Z,43.57
2019-03-31T00:35:17.858Z,43.61
2019-03-31T00:36:25.974Z,43.50
2019-03-31T00:37:34.129Z,43.83
2019-03-31T00:38:42.331Z,43.67
2019-03-31T00:39:50.533Z,43.44
2019-03-31T00:40:58.681Z,43.63
2019-03-31T00:42:07.004Z,43.43
2019-03-31T00:43:15.711Z,43.46
2019-03-31T00:44:23.703Z,43.44
2019-03-31T00:45:31.857Z,43.74
2019-03-31T00:46:40.045Z,43.93
2019-03-31T00:47:48.463Z,44.18
2019-03-31T00:48:56.442Z,44.46
2019-03-31T00:50:05.765Z,44.60
2019-03-31T00:51:13.951Z,44.48
2019-03-31T00:52:22.253Z,44.80
2019-03-31T00:53:30.731Z,44.80
2019-03-31T00:54:38.606Z,44.92
2019-03-31T00:55:47.168Z,45.19
2019-03-31T00:56:55.810Z,45.12
2019-03-31T00:58:04.064Z,45.64
2019-03-31T00:59:12.407Z,45.61
2019-03-31T01:00:41.693Z,45.46
2019-03-31T01:01:52.240Z,45.60
2019-03-31T01:03:00.722Z,45.02
2019-03-31T01:04:09.386Z,45.23
2019-03-31T01:05:17.737Z,45.38
2019-03-31T01:06:26.491Z,45.50
2019-03-31T01:07:34.438Z,45.51
2019-03-31T01:08:42.518Z,45.52
2019-03-31T01:09:51.669Z,45.44
2019-03-31T01:11:00.382Z,45.62
2019-03-31T01:12:09.030Z,45.53
2019-03-31T01:13:17.332Z,45.30
2019-03-31T01:14:26.854Z,45.78
2019-03-31T01:15:36.092Z,45.44
2019-03-31T01:16:44.141Z,45.33
2019-03-31T01:17:52.438Z,45.50
2019-03-31T01:19:00.515Z,45.42
2019-03-31T01:20:11.045Z,45.49
2019-03-31T01:21:19.290Z,45.24
2019-03-31T01:22:27.193Z,45.32
2019-03-31T01:23:35.603Z,45.85
2019-03-31T01:24:43.789Z,45.80
2019-03-31T01:25:52.529Z,45.93
2019-03-31T01:27:00.683Z,46.17
2019-03-31T01:28:08.893Z,46.12
2019-03-31T01:29:17.893Z,46.25
2019-03-31T01:30:26.062Z,46.33
2019-03-31T01:31:34.456Z,46.38
2019-03-31T01:32:42.498Z,46.38
2019-03-31T01:33:50.986Z,46.34
2019-03-31T01:34:59.097Z,46.47
2019-03-31T01:36:08.019Z,46.41
2019-03-31T01:37:19.937Z,46.47
2019-03-31T01:38:26.669Z,46.33
2019-03-31T01:39:35.433Z,46.50
2019-03-31T01:40:43.291Z,46.59
2019-03-31T01:41:51.771Z,46.76
2019-03-31T01:42:59.863Z,46.65
2019-03-31T01:44:08.220Z,46.78
2019-03-31T01:45:16.802Z,46.73
2019-03-31T01:46:25.598Z,46.90
2019-03-31T01:47:33.599Z,47.02
2019-03-31T01:48:41.740Z,47.21
2019-03-31T01:49:50.034Z,47.31
2019-03-31T01:50:58.247Z,47.31
2019-03-31T01:52:07.634Z,47.44
2019-03-31T01:53:16.081Z,47.48
2019-03-31T01:54:24.113Z,47.50
2019-03-31T01:55:32.269Z,47.56
2019-03-31T01:56:40.555Z,47.50
2019-03-31T01:57:48.965Z,47.71
2019-03-31T01:58:57.078Z,47.80
2019-03-31T02:00:12.339Z,47.78
2019-03-31T02:01:21.147Z,47.64
2019-03-31T02:02:31.088Z,47.79
2019-03-31T02:03:39.073Z,47.70
2019-03-31T02:04:47.276Z,47.84
2019-03-31T02:05:55.790Z,47.74
2019-03-31T02:07:04.130Z,47.95
2019-03-31T02:08:12.179Z,47.87
2019-03-31T02:09:20.691Z,47.80
2019-03-31T02:10:29.090Z,47.96
2019-03-31T02:11:37.287Z,47.84
2019-03-31T02:12:45.433Z,47.88
2019-03-31T02:13:53.908Z,47.99
2019-03-31T02:15:01.954Z,48.14
2019-03-31T02:16:09.987Z,48.26
2019-03-31T02:17:18.645Z,48.17
2019-03-31T02:18:26.702Z,47.96
2019-03-31T02:19:34.987Z,47.93
2019-03-31T02:20:43.183Z,47.79
2019-03-31T02:21:51.284Z,47.60
2019-03-31T02:22:59.684Z,47.51
2019-03-31T02:24:07.613Z,47.58
2019-03-31T02:25:16.043Z,47.66
2019-03-31T02:26:24.383Z,47.58
2019-03-31T02:27:32.545Z,47.46
2019-03-31T02:28:40.686Z,47.31
2019-03-31T02:29:48.679Z,47.35
2019-03-31T02:30:57.360Z,47.46
2019-03-31T02:32:22.517Z,47.48
2019-03-31T02:33:15.372Z,47.42
2019-03-31T02:34:23.525Z,47.60
2019-03-31T02:35:31.570Z,47.57
2019-03-31T02:36:39.615Z,47.55
2019-03-31T02:37:48.040Z,47.53
2019-03-31T02:38:56.434Z,47.67
2019-03-31T02:40:05.945Z,47.62
2019-03-31T02:41:14.200Z,47.70
2019-03-31T02:42:22.373Z,48.01
2019-03-31T02:43:30.645Z,47.59
2019-03-31T02:44:39.000Z,48.14
2019-03-31T02:45:47.165Z,48.07
2019-03-31T02:46:56.086Z,47.98
2019-03-31T02:48:04.450Z,48.19
2019-03-31T02:49:12.982Z,48.17
2019-03-31T02:50:40.378Z,48.04
2019-03-31T02:51:48.663Z,48.13
2019-03-31T02:52:56.943Z,48.34
2019-03-31T02:54:05.488Z,48.36
2019-03-31T02:55:13.993Z,48.48
2019-03-31T02:56:23.835Z,48.44
2019-03-31T02:57:32.622Z,48.55
2019-03-31T02:58:41.153Z,48.56
2019-03-31T02:59:51.278Z,48.76
2019-03-31T03:01:00.885Z,48.90
2019-03-31T03:02:11.344Z,48.76
2019-03-31T03:03:20.249Z,48.77
2019-03-31T03:04:32.783Z,48.95
2019-03-31T03:05:43.510Z,48.83
2019-03-31T03:06:54.421Z,48.78
2019-03-31T03:08:03.760Z,48.84
2019-03-31T03:09:11.991Z,48.76
2019-03-31T03:10:21.847Z,48.86
2019-03-31T03:11:33.084Z,48.70
2019-03-31T03:12:44.606Z,48.58
2019-03-31T03:13:53.721Z,48.60
2019-03-31T03:15:05.139Z,48.49
2019-03-31T03:16:19.755Z,48.31
2019-03-31T03:17:28.230Z,48.14
2019-03-31T03:18:36.334Z,48.27
2019-03-31T03:19:44.394Z,48.49
2019-03-31T03:20:52.342Z,48.62
2019-03-31T03:22:00.766Z,48.75
2019-03-31T03:23:08.988Z,48.95
2019-03-31T03:24:17.244Z,48.80
2019-03-31T03:25:25.414Z,48.83
2019-03-31T03:26:33.498Z,48.72
2019-03-31T03:27:41.725Z,48.89
2019-03-31T03:28:49.882Z,48.64
2019-03-31T03:29:58.080Z,48.54
2019-03-31T03:31:13.934Z,48.79
2019-03-31T03:32:16.065Z,48.76
2019-03-31T03:33:24.043Z,48.83
2019-03-31T03:34:32.008Z,48.79
2019-03-31T03:35:40.216Z,48.85
2019-03-31T03:36:48.678Z,48.87
2019-03-31T03:37:56.689Z,48.92
2019-03-31T03:39:07.420Z,48.91
2019-03-31T03:40:15.617Z,48.88
2019-03-31T03:41:23.692Z,48.81
2019-03-31T03:42:31.968Z,48.74
2019-03-31T03:43:54.070Z,48.64
2019-03-31T03:44:49.933Z,48.58
2019-03-31T03:45:58.334Z,48.71
2019-03-31T03:47:06.309Z,48.63
2019-03-31T03:48:14.278Z,48.59
2019-03-31T03:49:22.118Z,48.62
2019-03-31T03:50:30.403Z,48.68
2019-03-31T03:51:38.709Z,48.74
2019-03-31T03:52:46.786Z,48.79
2019-03-31T03:53:55.209Z,48.61
2019-03-31T03:55:03.211Z,48.51
2019-03-31T03:56:11.627Z,48.48
2019-03-31T03:57:19.812Z,48.41
2019-03-31T03:58:28.003Z,48.36
2019-03-31T03:59:36.322Z,48.45
2019-03-31T04:00:44.508Z,48.69
2019-03-31T04:01:52.393Z,48.98
2019-03-31T04:03:00.677Z,49.12
2019-03-31T04:04:08.845Z,49.33
2019-03-31T04:05:16.896Z,49.33
2019-03-31T04:06:25.091Z,49.46
2019-03-31T04:07:33.047Z,49.44
2019-03-31T04:08:41.399Z,49.51
2019-03-31T04:09:49.491Z,49.48
2019-03-31T04:11:10.703Z,49.44
2019-03-31T04:12:18.977Z,49.34
2019-03-31T04:13:26.866Z,49.43
2019-03-31T04:14:35.105Z,49.79
2019-03-31T04:15:43.381Z,49.99
2019-03-31T04:16:51.579Z,49.94
2019-03-31T04:17:59.659Z,50.00
2019-03-31T04:19:07.782Z,50.02
2019-03-31T04:20:15.874Z,50.13
2019-03-31T04:21:23.851Z,50.13
2019-03-31T04:22:31.957Z,49.90
2019-03-31T04:23:40.322Z,50.14
2019-03-31T04:24:48.515Z,50.33
2019-03-31T04:25:56.456Z,50.36
2019-03-31T04:27:04.570Z,50.35
2019-03-31T04:28:12.568Z,50.39
2019-03-31T04:29:20.650Z,50.42
2019-03-31T04:30:28.659Z,50.48
2019-03-31T04:31:36.843Z,50.50
2019-03-31T04:32:45.028Z,50.32
2019-03-31T04:33:53.626Z,50.39
2019-03-31T04:35:01.801Z,50.40
2019-03-31T04:36:10.026Z,50.52
2019-03-31T04:37:18.777Z,50.45
2019-03-31T04:38:26.746Z,50.37
2019-03-31T04:39:34.865Z,50.38
2019-03-31T04:40:43.594Z,50.35
2019-03-31T04:41:51.768Z,50.47
2019-03-31T04:43:00.091Z,50.34
2019-03-31T04:44:08.175Z,50.41
2019-03-31T04:45:16.560Z,50.42
2019-03-31T04:46:24.666Z,50.53
2019-03-31T04:47:32.764Z,50.49
2019-03-31T04:48:40.962Z,50.51
2019-03-31T04:49:48.914Z,50.44
2019-03-31T04:50:57.116Z,50.40
2019-03-31T04:52:05.762Z,50.31
2019-03-31T04:53:13.498Z,50.48
2019-03-31T04:54:21.762Z,50.62
2019-03-31T04:55:29.837Z,50.90
2019-03-31T04:56:38.198Z,51.02
2019-03-31T04:57:46.264Z,51.24
2019-03-31T04:58:54.332Z,51.22
2019-03-31T05:00:02.333Z,51.35
2019-03-31T05:01:10.339Z,51.35
2019-03-31T05:02:18.540Z,51.36
2019-03-31T05:03:26.573Z,51.35
2019-03-31T05:04:34.581Z,51.48
2019-03-31T05:05:42.495Z,51.64
2019-03-31T05:06:50.723Z,51.58
2019-03-31T05:07:58.803Z,51.52
2019-03-31T05:09:07.720Z,51.61
2019-03-31T05:10:15.894Z,51.50
2019-03-31T05:11:23.969Z,51.59
2019-03-31T05:12:32.018Z,51.51
2019-03-31T05:13:39.958Z,51.45
2019-03-31T05:14:48.138Z,51.51
2019-03-31T05:15:56.297Z,51.62
2019-03-31T05:17:04.609Z,51.84
2019-03-31T05:18:12.597Z,51.72
2019-03-31T05:19:20.729Z,51.85
2019-03-31T05:20:28.829Z,51.91
2019-03-31T05:21:36.895Z,51.91
2019-03-31T05:22:45.123Z,51.78
2019-03-31T05:23:53.138Z,51.84
2019-03-31T05:25:01.434Z,51.74
2019-03-31T05:26:09.749Z,51.68
2019-03-31T05:27:17.932Z,51.69
2019-03-31T05:28:25.954Z,51.56
2019-03-31T05:29:35.331Z,51.54
2019-03-31T05:30:43.560Z,51.42
2019-03-31T05:31:51.703Z,51.37
2019-03-31T05:32:59.800Z,51.33
2019-03-31T05:34:18.957Z,51.40
2019-03-31T05:35:18.477Z,51.48
2019-03-31T05:36:26.675Z,51.39
2019-03-31T05:37:34.772Z,51.33
2019-03-31T05:38:43.071Z,51.21
2019-03-31T05:39:51.138Z,51.33
2019-03-31T05:40:59.373Z,51.37
2019-03-31T05:42:07.590Z,51.20
2019-03-31T05:43:15.786Z,51.23
2019-03-31T05:44:23.826Z,51.15
2019-03-31T05:45:32.261Z,51.16
2019-03-31T05:46:40.678Z,51.19
2019-03-31T05:47:49.098Z,51.11
2019-03-31T05:48:57.398Z,51.06
2019-03-31T05:50:07.139Z,50.86
2019-03-31T05:51:15.131Z,50.81
2019-03-31T05:52:23.427Z,50.67
2019-03-31T05:53:31.399Z,50.79
2019-03-31T05:54:39.536Z,50.87
2019-03-31T05:55:47.667Z,50.85
2019-03-31T05:56:55.687Z,50.73
2019-03-31T05:58:03.846Z,50.71
2019-03-31T05:59:12.270Z,50.69
2019-03-31T06:00:39.624Z,50.89
2019-03-31T06:01:47.692Z,50.83
2019-03-31T06:02:55.716Z,50.79
2019-03-31T06:04:03.835Z,50.84
2019-03-31T06:05:12.217Z,50.79
2019-03-31T06:06:21.134Z,50.83
2019-03-31T06:07:29.316Z,50.82
2019-03-31T06:08:37.367Z,50.75
2019-03-31T06:09:45.448Z,50.62
2019-03-31T06:10:53.770Z,50.30
2019-03-31T06:12:01.841Z,50.24
2019-03-31T06:13:09.684Z,50.24
2019-03-31T06:14:17.850Z,50.31
2019-03-31T06:15:25.760Z,50.14
2019-03-31T06:16:33.952Z,50.26
2019-03-31T06:17:42.041Z,50.20
2019-03-31T06:18:50.341Z,50.15
2019-03-31T06:19:58.406Z,50.05
2019-03-31T06:21:06.801Z,49.91
2019-03-31T06:22:15.244Z,49.94
2019-03-31T06:23:23.484Z,49.91
2019-03-31T06:24:31.889Z,49.87
2019-03-31T06:25:40.201Z,50.07
2019-03-31T06:26:48.279Z,50.00
2019-03-31T06:27:56.768Z,49.98
2019-03-31T06:29:05.406Z,49.84
2019-03-31T06:30:14.244Z,49.76
2019-03-31T06:31:22.445Z,49.59
2019-03-31T06:32:30.673Z,49.63
2019-03-31T06:33:39.138Z,49.38
2019-03-31T06:34:48.074Z,49.38
2019-03-31T06:35:56.304Z,49.39
2019-03-31T06:37:04.393Z,49.03
2019-03-31T06:38:13.180Z,49.13
2019-03-31T06:39:21.270Z,48.92
2019-03-31T06:40:29.368Z,48.67
2019-03-31T06:41:37.681Z,48.47
2019-03-31T06:42:45.713Z,48.58
2019-03-31T06:43:53.955Z,48.63
2019-03-31T06:45:01.971Z,48.74
2019-03-31T06:46:10.495Z,48.82
2019-03-31T06:47:19.125Z,48.94
2019-03-31T06:48:27.431Z,48.78
2019-03-31T06:49:35.400Z,48.38
2019-03-31T06:50:43.706Z,48.10
2019-03-31T06:51:51.902Z,48.20
2019-03-31T06:52:59.998Z,48.25
2019-03-31T06:54:07.992Z,48.38
2019-03-31T06:55:16.614Z,48.33
2019-03-31T06:56:24.668Z,48.04
2019-03-31T06:57:32.800Z,48.17
2019-03-31T06:58:40.842Z,47.88
2019-03-31T06:59:48.786Z,47.50
2019-03-31T07:00:57.081Z,47.69
2019-03-31T07:02:05.286Z,47.73
2019-03-31T07:03:14.270Z,47.67
2019-03-31T07:04:22.569Z,47.18
2019-03-31T07:05:30.906Z,47.15
2019-03-31T07:06:39.094Z,47.08
2019-03-31T07:07:47.206Z,47.23
2019-03-31T07:08:55.706Z,47.41
2019-03-31T07:10:05.006Z,47.28
2019-03-31T07:11:13.294Z,47.11
2019-03-31T07:12:22.161Z,47.04
2019-03-31T07:13:30.213Z,46.84
2019-03-31T07:14:38.343Z,46.57
2019-03-31T07:15:46.383Z,46.58
2019-03-31T07:16:54.648Z,46.65
2019-03-31T07:18:02.909Z,46.62
2019-03-31T07:19:11.139Z,46.67
2019-03-31T07:20:19.887Z,46.68
2019-03-31T07:21:28.147Z,45.97
2019-03-31T07:22:36.373Z,46.34
2019-03-31T07:23:44.957Z,45.44
2019-03-31T07:24:53.074Z,45.68
2019-03-31T07:26:01.180Z,45.37
2019-03-31T07:27:09.743Z,45.47
2019-03-31T07:28:18.224Z,45.08
2019-03-31T07:29:26.402Z,45.32
2019-03-31T07:30:34.765Z,45.21
2019-03-31T07:31:43.067Z,44.50
2019-03-31T07:32:51.280Z,44.79
2019-03-31T07:33:59.685Z,44.51
2019-03-31T07:35:18.213Z,44.00
2019-03-31T07:36:21.810Z,44.36
2019-03-31T07:37:31.003Z,44.32
2019-03-31T07:38:39.847Z,43.88
2019-03-31T07:39:48.256Z,43.72
2019-03-31T07:40:56.880Z,43.68
2019-03-31T07:42:05.292Z,43.93
2019-03-31T07:43:14.090Z,43.73
2019-03-31T07:44:22.760Z,43.43
2019-03-31T07:45:31.145Z,43.44
2019-03-31T07:46:39.276Z,43.92
2019-03-31T07:47:47.496Z,43.47
2019-03-31T07:48:55.860Z,43.79
2019-03-31T07:50:06.668Z,43.63
2019-03-31T07:51:14.703Z,43.68
2019-03-31T07:52:23.105Z,43.40
2019-03-31T07:53:31.340Z,42.99
2019-03-31T07:54:39.534Z,43.20
2019-03-31T07:55:47.736Z,43.19
2019-03-31T07:56:55.826Z,42.88
2019-03-31T07:58:04.095Z,43.22
2019-03-31T07:59:12.392Z,43.25
2019-03-31T08:00:23.166Z,42.87
2019-03-31T08:01:49.185Z,42.94
2019-03-31T08:03:23.041Z,42.76
2019-03-31T08:04:44.501Z,42.79
2019-03-31T08:06:16.205Z,42.60
2019-03-31T08:07:38.859Z,42.66
2019-03-31T08:09:14.726Z,42.83
2019-03-31T08:10:33.227Z,42.80
2019-03-31T08:12:08.490Z,42.54
2019-03-31T08:13:35.852Z,42.29
2019-03-31T08:15:09.319Z,42.01
2019-03-31T08:16:40.004Z,42.51
2019-03-31T08:17:50.956Z,42.42
2019-03-31T08:19:25.796Z,42.09
2019-03-31T08:20:52.301Z,42.18
2019-03-31T08:22:24.291Z,41.64
2019-03-31T08:23:53.776Z,41.98
2019-03-31T08:25:21.637Z,41.80
2019-03-31T08:26:40.266Z,41.04
2019-03-31T08:28:11.545Z,41.33
2019-03-31T08:29:43.680Z,41.21
2019-03-31T08:31:13.602Z,40.65
2019-03-31T08:32:30.583Z,41.02
2019-03-31T08:33:58.985Z,40.70
2019-03-31T08:35:29.961Z,39.95
2019-03-31T08:36:41.938Z,40.06
2019-03-31T08:38:02.628Z,39.89
2019-03-31T08:39:31.786Z,40.23
2019-03-31T08:40:57.704Z,40.17
2019-03-31T08:42:06.770Z,38.74
2019-03-31T08:43:20.038Z,38.70
2019-03-31T08:44:28.339Z,39.10
2019-03-31T08:45:36.979Z,38.52
2019-03-31T08:46:45.583Z,38.75
2019-03-31T08:47:53.638Z,38.13
2019-03-31T08:49:01.731Z,38.26
2019-03-31T08:50:10.929Z,38.04
2019-03-31T08:51:19.460Z,38.43
2019-03-31T08:52:27.539Z,38.79
2019-03-31T08:53:35.882Z,38.38
2019-03-31T08:54:45.075Z,38.44
2019-03-31T08:55:53.319Z,38.74
2019-03-31T08:57:02.234Z,37.85
2019-03-31T08:58:10.243Z,37.99
2019-03-31T08:59:18.747Z,38.01
2019-03-31T09:00:34.869Z,37.48
2019-03-31T09:01:43.577Z,37.75
2019-03-31T09:02:51.647Z,37.47
2019-03-31T09:03:59.568Z,37.12
2019-03-31T09:05:09.877Z,37.54
2019-03-31T09:06:17.930Z,36.89
2019-03-31T09:07:26.742Z,37.16
2019-03-31T09:08:34.768Z,37.50
2019-03-31T09:09:42.630Z,37.14
2019-03-31T09:10:50.843Z,37.17
2019-03-31T09:11:58.966Z,36.98
2019-03-31T09:13:07.247Z,37.12
2019-03-31T09:14:15.347Z,37.29
2019-03-31T09:15:23.870Z,36.98
2019-03-31T09:16:31.994Z,36.92
2019-03-31T09:17:40.416Z,37.04
2019-03-31T09:18:48.639Z,36.60
2019-03-31T09:19:56.751Z,36.61
2019-03-31T09:21:04.716Z,36.49
2019-03-31T09:22:13.063Z,36.66
2019-03-31T09:23:21.151Z,36.82
2019-03-31T09:24:30.439Z,36.41
2019-03-31T09:25:38.435Z,35.99
2019-03-31T09:26:46.529Z,36.06
2019-03-31T09:27:54.630Z,35.56
2019-03-31T09:29:02.902Z,35.46
2019-03-31T09:30:13.149Z,35.73
2019-03-31T09:31:21.618Z,35.58
2019-03-31T09:32:29.683Z,35.82
2019-03-31T09:33:39.424Z,35.61
2019-03-31T09:34:48.569Z,35.08
2019-03-31T09:35:57.177Z,35.19
2019-03-31T09:37:05.423Z,35.32
2019-03-31T09:38:13.419Z,35.22
2019-03-31T09:39:21.828Z,35.19
2019-03-31T09:40:30.559Z,35.39
2019-03-31T09:41:38.583Z,35.10
2019-03-31T09:42:46.576Z,35.51
2019-03-31T09:43:54.576Z,35.48
2019-03-31T09:45:02.580Z,35.42
2019-03-31T09:46:10.763Z,35.43
2019-03-31T09:47:18.684Z,35.47
2019-03-31T09:48:26.870Z,35.41
2019-03-31T09:49:35.054Z,35.29
2019-03-31T09:50:43.051Z,35.15
2019-03-31T09:51:51.040Z,35.02
2019-03-31T09:52:59.362Z,35.09
2019-03-31T09:54:07.441Z,34.48
2019-03-31T09:55:16.405Z,34.64
2019-03-31T09:56:24.965Z,34.24
2019-03-31T09:57:33.070Z,33.15
2019-03-31T09:58:40.997Z,32.09
2019-03-31T09:59:49.107Z,32.35
2019-03-31T10:00:57.205Z,32.82
2019-03-31T10:02:05.436Z,33.08
2019-03-31T10:03:13.742Z,33.29
2019-03-31T10:04:21.992Z,33.14
2019-03-31T10:05:30.688Z,32.57
2019-03-31T10:06:38.814Z,32.58
2019-03-31T10:07:48.066Z,31.83
2019-03-31T10:08:56.494Z,32.31
2019-03-31T10:10:09.013Z,32.72
2019-03-31T10:11:16.839Z,32.28
2019-03-31T10:12:25.073Z,32.08
2019-03-31T10:13:33.413Z,32.22
2019-03-31T10:14:41.689Z,32.02
2019-03-31T10:15:49.745Z,32.01
2019-03-31T10:16:57.899Z,31.08
2019-03-31T10:18:06.424Z,31.09
2019-03-31T10:19:14.601Z,31.19
2019-03-31T10:20:22.658Z,30.00
2019-03-31T10:21:30.548Z,30.52
2019-03-31T10:22:38.660Z,29.95
2019-03-31T10:23:46.772Z,30.23
2019-03-31T10:24:54.798Z,29.02
2019-03-31T10:26:02.887Z,28.14
2019-03-31T10:27:11.023Z,28.72
2019-03-31T10:28:19.358Z,27.57
2019-03-31T10:29:27.773Z,26.37
2019-03-31T10:30:38.261Z,26.54
2019-03-31T10:31:46.637Z,26.05
2019-03-31T10:32:54.961Z,25.45
2019-03-31T10:34:03.523Z,25.22
2019-03-31T10:35:11.467Z,24.42
2019-03-31T10:36:20.059Z,24.19
2019-03-31T10:37:28.440Z,23.98
2019-03-31T10:38:36.680Z,23.42
2019-03-31T10:39:44.670Z,22.79
2019-03-31T10:40:52.770Z,22.13
2019-03-31T10:42:01.441Z,21.96
2019-03-31T10:43:09.472Z,21.55
2019-03-31T10:44:17.497Z,20.64
2019-03-31T10:45:25.869Z,20.68
2019-03-31T10:46:34.129Z,20.33
2019-03-31T10:47:42.187Z,20.23
2019-03-31T10:48:50.468Z,20.17
2019-03-31T10:49:58.763Z,20.10
2019-03-31T10:51:06.975Z,19.94
2019-03-31T10:52:16.068Z,17.96
2019-03-31T10:53:24.276Z,18.98
2019-03-31T10:54:32.494Z,18.28
2019-03-31T10:55:40.540Z,18.52
2019-03-31T10:56:48.832Z,18.29
2019-03-31T10:57:57.298Z,18.21
2019-03-31T10:59:05.332Z,17.00
2019-03-31T11:00:13.866Z,17.31
2019-03-31T11:01:21.731Z,16.90
2019-03-31T11:02:30.061Z,16.23
2019-03-31T11:03:38.407Z,16.44
2019-03-31T11:04:46.457Z,16.05
2019-03-31T11:05:54.578Z,15.42
2019-03-31T11:07:03.595Z,15.88
2019-03-31T11:08:12.517Z,14.75
2019-03-31T11:09:21.743Z,15.52
2019-03-31T11:10:30.456Z,15.40
2019-03-31T11:11:39.260Z,14.29
2019-03-31T11:12:50.684Z,15.18
2019-03-31T11:13:57.292Z,14.79
2019-03-31T11:15:09.283Z,14.14
2019-03-31T11:16:17.278Z,14.26
2019-03-31T11:17:25.407Z,14.08
2019-03-31T11:18:33.832Z,13.86
2019-03-31T11:19:41.853Z,14.30
2019-03-31T11:20:49.676Z,14.46
2019-03-31T11:22:08.287Z,13.51
2019-03-31T11:23:17.838Z,14.21
2019-03-31T11:24:26.144Z,13.74
2019-03-31T11:25:34.356Z,13.77
2019-03-31T11:26:42.906Z,13.32
2019-03-31T11:27:51.183Z,13.71
2019-03-31T11:28:59.230Z,13.39
2019-03-31T11:30:09.529Z,13.26
2019-03-31T11:31:18.118Z,13.35
2019-03-31T11:32:26.635Z,13.06
2019-03-31T11:33:34.944Z,12.94
2019-03-31T11:34:43.113Z,12.88
2019-03-31T11:35:51.341Z,13.08
2019-03-31T11:37:12.510Z,12.99
2019-03-31T11:38:08.942Z,12.90
2019-03-31T11:39:17.350Z,13.02
2019-03-31T11:40:25.912Z,12.52
2019-03-31T11:41:35.166Z,12.56
2019-03-31T11:42:43.493Z,12.75
2019-03-31T11:43:51.758Z,12.72
2019-03-31T11:44:59.943Z,12.31
2019-03-31T11:46:08.466Z,12.21
2019-03-31T11:47:16.867Z,12.46
2019-03-31T11:48:24.957Z,12.24
2019-03-31T11:49:33.248Z,12.38
2019-03-31T11:50:41.588Z,12.42
2019-03-31T11:51:50.162Z,11.91
2019-03-31T11:52:58.494Z,12.08
2019-03-31T11:54:07.038Z,12.13
2019-03-31T11:55:15.377Z,12.26
2019-03-31T11:56:23.585Z,12.36
2019-03-31T11:57:32.381Z,12.26
2019-03-31T11:58:40.379Z,11.78
2019-03-31T11:59:49.849Z,11.91
2019-03-31T12:00:58.271Z,12.23
2019-03-31T12:02:06.493Z,11.96
2019-03-31T12:03:15.019Z,12.16
2019-03-31T12:04:23.027Z,12.03
2019-03-31T12:05:31.330Z,12.20
2019-03-31T12:06:39.955Z,12.15
2019-03-31T12:07:48.494Z,12.08
2019-03-31T12:08:56.459Z,11.96
2019-03-31T12:10:07.132Z,12.17
2019-03-31T12:11:15.245Z,12.08
2019-03-31T12:12:23.582Z,12.12
2019-03-31T12:13:31.805Z,11.90
2019-03-31T12:14:40.411Z,11.83
2019-03-31T12:15:48.885Z,11.91
2019-03-31T12:16:57.227Z,11.68
2019-03-31T12:18:05.705Z,11.32
2019-03-31T12:19:13.941Z,11.46
2019-03-31T12:20:22.214Z,11.33
2019-03-31T12:21:30.787Z,11.43
2019-03-31T12:22:39.218Z,11.83
2019-03-31T12:23:47.501Z,11.65
2019-03-31T12:24:55.545Z,11.47
2019-03-31T12:26:03.616Z,12.29
2019-03-31T12:27:11.976Z,12.63
2019-03-31T12:28:20.322Z,12.55
2019-03-31T12:29:28.228Z,12.28
2019-03-31T12:30:36.729Z,12.19
2019-03-31T12:31:45.092Z,11.96
2019-03-31T12:32:53.171Z,11.89
2019-03-31T12:34:01.675Z,11.75
2019-03-31T12:35:10.870Z,11.67
2019-03-31T12:36:19.079Z,11.69
2019-03-31T12:37:41.341Z,11.52
2019-03-31T12:38:36.846Z,11.40
2019-03-31T12:39:45.317Z,11.04
2019-03-31T12:40:53.716Z,11.09
2019-03-31T12:42:01.998Z,11.05
2019-03-31T12:43:10.514Z,11.00
2019-03-31T12:44:18.654Z,10.83
2019-03-31T12:45:26.657Z,10.57
2019-03-31T12:46:34.730Z,10.53
2019-03-31T12:47:43.233Z,10.70
2019-03-31T12:48:51.924Z,10.72
2019-03-31T12:50:00.114Z,10.59
2019-03-31T12:51:08.507Z,10.64
2019-03-31T12:52:16.431Z,10.58
2019-03-31T12:53:24.573Z,10.53
2019-03-31T12:54:32.439Z,10.89
2019-03-31T12:55:40.516Z,10.84
2019-03-31T12:56:48.887Z,10.81
2019-03-31T12:57:56.809Z,11.02
2019-03-31T12:59:05.544Z,10.96
2019-03-31T13:00:13.925Z,10.81
2019-03-31T13:01:22.122Z,10.53
2019-03-31T13:02:29.981Z,10.73
2019-03-31T13:03:38.246Z,10.72
2019-03-31T13:04:46.834Z,10.79
2019-03-31T13:05:55.127Z,10.64
2019-03-31T13:07:03.433Z,10.61
2019-03-31T13:08:11.588Z,10.43
2019-03-31T13:09:19.671Z,10.27
2019-03-31T13:10:28.247Z,10.47
2019-03-31T13:11:36.333Z,10.29
2019-03-31T13:12:44.611Z,10.20
2019-03-31T13:13:52.783Z,9.93
2019-03-31T13:15:00.817Z,9.97
2019-03-31T13:16:09.344Z,9.70
2019-03-31T13:17:17.570Z,9.63
2019-03-31T13:18:27.912Z,10.35
2019-03-31T13:19:35.983Z,10.73
2019-03-31T13:20:44.236Z,10.68
2019-03-31T13:21:52.270Z,10.47
2019-03-31T13:23:00.371Z,10.53
2019-03-31T13:24:08.556Z,10.66
2019-03-31T13:25:16.969Z,11.00
2019-03-31T13:26:25.078Z,11.05
2019-03-31T13:27:33.063Z,11.25
2019-03-31T13:28:41.251Z,11.55
2019-03-31T13:29:49.126Z,12.35
2019-03-31T13:30:57.082Z,12.48
2019-03-31T13:32:05.445Z,12.61
2019-03-31T13:33:13.670Z,12.67
2019-03-31T13:34:21.606Z,12.44
2019-03-31T13:35:29.644Z,12.24
2019-03-31T13:36:37.790Z,12.08
2019-03-31T13:37:46.143Z,11.74
2019-03-31T13:38:54.470Z,11.53
2019-03-31T13:40:02.865Z,11.08
2019-03-31T13:41:10.915Z,10.67
2019-03-31T13:42:18.880Z,10.71
2019-03-31T13:43:27.112Z,10.74
2019-03-31T13:44:35.132Z,10.83
2019-03-31T13:45:43.269Z,11.58
2019-03-31T13:46:51.544Z,11.72
2019-03-31T13:47:59.494Z,12.09
2019-03-31T13:49:07.612Z,12.45
2019-03-31T13:50:16.617Z,12.48
2019-03-31T13:51:24.871Z,12.49
2019-03-31T13:52:33.368Z,12.39
2019-03-31T13:53:41.502Z,12.25
2019-03-31T13:54:49.634Z,12.03
2019-03-31T13:55:57.967Z,11.94
2019-03-31T13:57:07.049Z,12.10
2019-03-31T13:58:19.011Z,12.20
2019-03-31T13:59:26.025Z,12.22
2019-03-31T14:00:40.565Z,12.13
2019-03-31T14:01:48.868Z,11.99
2019-03-31T14:02:57.356Z,11.66
2019-03-31T14:04:05.818Z,11.76
2019-03-31T14:05:14.183Z,11.85
2019-03-31T14:06:22.399Z,11.82
2019-03-31T14:07:30.544Z,11.29
2019-03-31T14:08:38.640Z,11.07
2019-03-31T14:09:46.627Z,11.86
2019-03-31T14:10:54.877Z,12.13
2019-03-31T14:12:03.547Z,12.11
2019-03-31T14:13:11.886Z,12.24
2019-03-31T14:14:19.877Z,12.30
2019-03-31T14:15:28.384Z,12.57
2019-03-31T14:16:36.684Z,13.12
2019-03-31T14:17:44.852Z,13.23
2019-03-31T14:18:53.238Z,13.25
2019-03-31T14:20:01.200Z,13.64
2019-03-31T14:21:09.598Z,14.07
2019-03-31T14:22:17.984Z,14.18
2019-03-31T14:23:26.136Z,14.97
2019-03-31T14:24:35.389Z,15.29
2019-03-31T14:25:43.625Z,14.77
2019-03-31T14:26:52.419Z,14.49
2019-03-31T14:28:00.633Z,14.39
2019-03-31T14:29:09.122Z,14.49
2019-03-31T14:30:17.786Z,14.60
2019-03-31T14:31:26.021Z,14.71
2019-03-31T14:32:36.342Z,14.77
2019-03-31T14:33:44.714Z,15.30
2019-03-31T14:34:53.570Z,15.68
2019-03-31T14:36:01.730Z,15.86
2019-03-31T14:37:10.476Z,15.71
2019-03-31T14:38:18.470Z,15.74
2019-03-31T14:39:35.830Z,16.18
2019-03-31T14:41:07.569Z,17.00
2019-03-31T14:42:38.463Z,16.64
2019-03-31T14:44:17.462Z,16.29
2019-03-31T14:45:44.975Z,15.48
2019-03-31T14:47:09.712Z,15.26
2019-03-31T14:48:30.378Z,15.29
2019-03-31T14:50:06.031Z,15.74
2019-03-31T14:51:37.034Z,16.31
2019-03-31T14:52:56.944Z,16.58
2019-03-31T14:54:25.358Z,16.36
2019-03-31T14:55:44.174Z,16.09